sensor_id;sensor_type;location;lat;lon;timestamp;P1;durP1;ratioP1;P2;durP2;ratioP2
55114;SDS011;41010;53.252;5.786;2022-11-23T00:00:16;23.00;;;11.93;;
55114;SDS011;41010;53.252;5.786;2022-11-23T00:02:44;19.38;;;12.35;;
55114;SDS011;41010;53.252;5.786;2022-11-23T00:05:11;24.10;;;14.30;;
55114;SDS011;41010;53.252;5.786;2022-11-23T00:07:38;30.27;;;13.52;;
55114;SDS011;41010;53.252;5.786;2022-11-23T00:10:06;30.50;;;13.98;;
55114;SDS011;41010;53.252;5.786;2022-11-23T00:12:33;29.60;;;14.05;;
55114;SDS011;41010;53.252;5.786;2022-11-23T00:15:00;30.67;;;14.55;;
55114;SDS011;41010;53.252;5.786;2022-11-23T00:17:29;27.27;;;13.63;;
55114;SDS011;41010;53.252;5.786;2022-11-23T00:19:56;27.45;;;14.45;;
55114;SDS011;41010;53.252;5.786;2022-11-23T00:22:23;27.95;;;15.10;;
55114;SDS011;41010;53.252;5.786;2022-11-23T00:24:50;27.90;;;14.50;;
55114;SDS011;41010;53.252;5.786;2022-11-23T00:27:18;27.52;;;14.68;;
55114;SDS011;41010;53.252;5.786;2022-11-23T00:29:45;23.95;;;13.90;;
55114;SDS011;41010;53.252;5.786;2022-11-23T00:32:12;30.05;;;15.40;;
55114;SDS011;41010;53.252;5.786;2022-11-23T00:34:41;24.85;;;13.82;;
55114;SDS011;41010;53.252;5.786;2022-11-23T00:37:08;25.38;;;14.48;;
55114;SDS011;41010;53.252;5.786;2022-11-23T00:39:35;26.60;;;14.90;;
55114;SDS011;41010;53.252;5.786;2022-11-23T00:42:02;26.70;;;15.00;;
55114;SDS011;41010;53.252;5.786;2022-11-23T00:44:30;35.00;;;15.20;;
55114;SDS011;41010;53.252;5.786;2022-11-23T00:46:57;24.20;;;14.68;;
55114;SDS011;41010;53.252;5.786;2022-11-23T00:49:25;27.55;;;15.25;;
55114;SDS011;41010;53.252;5.786;2022-11-23T00:51:53;24.92;;;15.20;;
55114;SDS011;41010;53.252;5.786;2022-11-23T00:54:20;29.13;;;15.02;;
55114;SDS011;41010;53.252;5.786;2022-11-23T00:56:48;28.20;;;15.07;;
55114;SDS011;41010;53.252;5.786;2022-11-23T00:59:15;31.23;;;14.15;;
55114;SDS011;41010;53.252;5.786;2022-11-23T01:01:44;26.15;;;15.10;;
55114;SDS011;41010;53.252;5.786;2022-11-23T01:04:11;27.50;;;14.68;;
55114;SDS011;41010;53.252;5.786;2022-11-23T01:06:38;24.17;;;13.70;;
55114;SDS011;41010;53.252;5.786;2022-11-23T01:09:09;27.65;;;15.18;;
55114;SDS011;41010;53.252;5.786;2022-11-23T01:11:37;22.92;;;14.10;;
55114;SDS011;41010;53.252;5.786;2022-11-23T01:14:04;24.20;;;13.80;;
55114;SDS011;41010;53.252;5.786;2022-11-23T01:16:33;25.98;;;14.02;;
55114;SDS011;41010;53.252;5.786;2022-11-23T01:19:01;24.40;;;14.05;;
55114;SDS011;41010;53.252;5.786;2022-11-23T01:21:29;21.52;;;13.30;;
55114;SDS011;41010;53.252;5.786;2022-11-23T01:23:57;25.30;;;13.60;;
55114;SDS011;41010;53.252;5.786;2022-11-23T01:26:26;29.75;;;14.20;;
55114;SDS011;41010;53.252;5.786;2022-11-23T01:28:53;28.13;;;14.27;;
55114;SDS011;41010;53.252;5.786;2022-11-23T01:31:21;24.35;;;13.30;;
55114;SDS011;41010;53.252;5.786;2022-11-23T01:33:51;25.30;;;13.38;;
55114;SDS011;41010;53.252;5.786;2022-11-23T01:36:19;28.45;;;13.65;;
55114;SDS011;41010;53.252;5.786;2022-11-23T01:38:46;26.83;;;14.05;;
55114;SDS011;41010;53.252;5.786;2022-11-23T01:41:15;29.88;;;14.65;;
55114;SDS011;41010;53.252;5.786;2022-11-23T01:43:44;25.52;;;13.80;;
55114;SDS011;41010;53.252;5.786;2022-11-23T01:46:12;26.88;;;13.55;;
55114;SDS011;41010;53.252;5.786;2022-11-23T01:48:41;22.80;;;13.98;;
55114;SDS011;41010;53.252;5.786;2022-11-23T01:51:10;26.25;;;13.90;;
55114;SDS011;41010;53.252;5.786;2022-11-23T01:53:37;30.02;;;14.98;;
55114;SDS011;41010;53.252;5.786;2022-11-23T01:56:06;27.05;;;14.38;;
55114;SDS011;41010;53.252;5.786;2022-11-23T01:58:35;34.15;;;15.18;;
55114;SDS011;41010;53.252;5.786;2022-11-23T02:01:04;32.47;;;15.82;;
55114;SDS011;41010;53.252;5.786;2022-11-23T02:03:31;32.05;;;16.67;;
55114;SDS011;41010;53.252;5.786;2022-11-23T02:06:01;35.17;;;16.42;;
55114;SDS011;41010;53.252;5.786;2022-11-23T02:08:29;28.83;;;15.70;;
55114;SDS011;41010;53.252;5.786;2022-11-23T02:10:57;27.98;;;16.70;;
55114;SDS011;41010;53.252;5.786;2022-11-23T02:13:25;30.20;;;15.70;;
55114;SDS011;41010;53.252;5.786;2022-11-23T02:15:53;31.35;;;16.15;;
55114;SDS011;41010;53.252;5.786;2022-11-23T02:18:23;30.75;;;16.80;;
55114;SDS011;41010;53.252;5.786;2022-11-23T02:20:51;35.92;;;19.17;;
55114;SDS011;41010;53.252;5.786;2022-11-23T02:23:23;41.55;;;18.02;;
55114;SDS011;41010;53.252;5.786;2022-11-23T02:25:57;37.97;;;17.40;;
55114;SDS011;41010;53.252;5.786;2022-11-23T02:28:27;38.28;;;18.85;;
55114;SDS011;41010;53.252;5.786;2022-11-23T02:30:55;38.63;;;18.23;;
55114;SDS011;41010;53.252;5.786;2022-11-23T02:33:23;34.45;;;17.88;;
55114;SDS011;41010;53.252;5.786;2022-11-23T02:35:50;38.47;;;17.40;;
55114;SDS011;41010;53.252;5.786;2022-11-23T02:38:18;39.42;;;18.30;;
55114;SDS011;41010;53.252;5.786;2022-11-23T02:40:46;35.00;;;18.80;;
55114;SDS011;41010;53.252;5.786;2022-11-23T02:43:14;36.40;;;18.35;;
55114;SDS011;41010;53.252;5.786;2022-11-23T02:45:42;32.67;;;19.33;;
55114;SDS011;41010;53.252;5.786;2022-11-23T02:48:12;34.17;;;19.58;;
55114;SDS011;41010;53.252;5.786;2022-11-23T02:50:39;36.25;;;19.10;;
55114;SDS011;41010;53.252;5.786;2022-11-23T02:53:07;36.78;;;19.27;;
55114;SDS011;41010;53.252;5.786;2022-11-23T02:55:34;32.08;;;19.50;;
55114;SDS011;41010;53.252;5.786;2022-11-23T02:58:01;40.53;;;19.60;;
55114;SDS011;41010;53.252;5.786;2022-11-23T03:00:30;33.63;;;18.88;;
55114;SDS011;41010;53.252;5.786;2022-11-23T03:02:58;35.08;;;18.48;;
55114;SDS011;41010;53.252;5.786;2022-11-23T03:05:26;32.83;;;17.67;;
55114;SDS011;41010;53.252;5.786;2022-11-23T03:07:53;36.75;;;19.95;;
55114;SDS011;41010;53.252;5.786;2022-11-23T03:10:21;44.10;;;20.15;;
55114;SDS011;41010;53.252;5.786;2022-11-23T03:12:48;34.72;;;19.52;;
55114;SDS011;41010;53.252;5.786;2022-11-23T03:15:15;45.53;;;21.70;;
55114;SDS011;41010;53.252;5.786;2022-11-23T03:17:44;49.53;;;23.35;;
55114;SDS011;41010;53.252;5.786;2022-11-23T03:20:11;47.22;;;23.20;;
55114;SDS011;41010;53.252;5.786;2022-11-23T03:22:38;45.53;;;24.38;;
55114;SDS011;41010;53.252;5.786;2022-11-23T03:25:06;49.17;;;25.25;;
55114;SDS011;41010;53.252;5.786;2022-11-23T03:27:33;41.15;;;23.20;;
55114;SDS011;41010;53.252;5.786;2022-11-23T03:30:01;44.72;;;25.08;;
55114;SDS011;41010;53.252;5.786;2022-11-23T03:32:28;46.70;;;23.90;;
55114;SDS011;41010;53.252;5.786;2022-11-23T03:34:56;52.85;;;24.83;;
55114;SDS011;41010;53.252;5.786;2022-11-23T03:37:24;55.78;;;25.63;;
55114;SDS011;41010;53.252;5.786;2022-11-23T03:39:51;49.42;;;24.15;;
55114;SDS011;41010;53.252;5.786;2022-11-23T03:42:18;54.35;;;25.15;;
55114;SDS011;41010;53.252;5.786;2022-11-23T03:44:45;51.78;;;23.08;;
55114;SDS011;41010;53.252;5.786;2022-11-23T03:47:13;50.50;;;24.40;;
55114;SDS011;41010;53.252;5.786;2022-11-23T03:49:40;42.25;;;22.67;;
55114;SDS011;41010;53.252;5.786;2022-11-23T03:52:09;53.47;;;24.80;;
55114;SDS011;41010;53.252;5.786;2022-11-23T03:54:36;47.20;;;22.58;;
55114;SDS011;41010;53.252;5.786;2022-11-23T03:57:03;47.95;;;24.02;;
55114;SDS011;41010;53.252;5.786;2022-11-23T03:59:31;43.67;;;22.63;;
55114;SDS011;41010;53.252;5.786;2022-11-23T04:01:58;41.80;;;22.77;;
55114;SDS011;41010;53.252;5.786;2022-11-23T04:04:25;49.83;;;23.27;;
55114;SDS011;41010;53.252;5.786;2022-11-23T04:06:52;49.50;;;23.77;;
55114;SDS011;41010;53.252;5.786;2022-11-23T04:09:21;46.53;;;23.42;;
55114;SDS011;41010;53.252;5.786;2022-11-23T04:11:48;52.17;;;25.02;;
55114;SDS011;41010;53.252;5.786;2022-11-23T04:14:15;52.28;;;25.65;;
55114;SDS011;41010;53.252;5.786;2022-11-23T04:16:43;45.67;;;23.80;;
55114;SDS011;41010;53.252;5.786;2022-11-23T04:19:10;56.03;;;24.55;;
55114;SDS011;41010;53.252;5.786;2022-11-23T04:21:37;59.28;;;26.45;;
55114;SDS011;41010;53.252;5.786;2022-11-23T04:24:05;49.38;;;25.05;;
55114;SDS011;41010;53.252;5.786;2022-11-23T04:26:33;38.38;;;22.98;;
55114;SDS011;41010;53.252;5.786;2022-11-23T04:29:01;48.42;;;25.80;;
55114;SDS011;41010;53.252;5.786;2022-11-23T04:31:28;45.50;;;23.92;;
55114;SDS011;41010;53.252;5.786;2022-11-23T04:33:55;51.22;;;25.70;;
55114;SDS011;41010;53.252;5.786;2022-11-23T04:36:23;49.40;;;25.00;;
55114;SDS011;41010;53.252;5.786;2022-11-23T04:38:51;54.95;;;25.42;;
55114;SDS011;41010;53.252;5.786;2022-11-23T04:41:18;51.50;;;24.52;;
55114;SDS011;41010;53.252;5.786;2022-11-23T04:43:47;55.13;;;24.27;;
55114;SDS011;41010;53.252;5.786;2022-11-23T04:46:16;50.28;;;23.73;;
55114;SDS011;41010;53.252;5.786;2022-11-23T04:48:43;42.58;;;23.55;;
55114;SDS011;41010;53.252;5.786;2022-11-23T04:51:10;46.83;;;24.85;;
55114;SDS011;41010;53.252;5.786;2022-11-23T04:53:37;52.30;;;24.48;;
55114;SDS011;41010;53.252;5.786;2022-11-23T04:56:05;47.88;;;24.23;;
55114;SDS011;41010;53.252;5.786;2022-11-23T04:58:33;51.05;;;24.00;;
55114;SDS011;41010;53.252;5.786;2022-11-23T05:01:02;45.28;;;22.98;;
55114;SDS011;41010;53.252;5.786;2022-11-23T05:03:29;48.10;;;23.38;;
55114;SDS011;41010;53.252;5.786;2022-11-23T05:05:59;48.40;;;22.80;;
55114;SDS011;41010;53.252;5.786;2022-11-23T05:08:26;50.47;;;22.95;;
55114;SDS011;41010;53.252;5.786;2022-11-23T05:10:54;40.15;;;21.40;;
55114;SDS011;41010;53.252;5.786;2022-11-23T05:13:21;52.92;;;22.00;;
55114;SDS011;41010;53.252;5.786;2022-11-23T05:15:48;42.70;;;19.90;;
55114;SDS011;41010;53.252;5.786;2022-11-23T05:18:17;44.17;;;21.67;;
55114;SDS011;41010;53.252;5.786;2022-11-23T05:20:45;46.58;;;21.13;;
55114;SDS011;41010;53.252;5.786;2022-11-23T05:23:12;42.15;;;20.27;;
55114;SDS011;41010;53.252;5.786;2022-11-23T05:25:39;43.08;;;21.15;;
55114;SDS011;41010;53.252;5.786;2022-11-23T05:28:07;51.85;;;21.05;;
55114;SDS011;41010;53.252;5.786;2022-11-23T05:30:35;45.35;;;19.52;;
55114;SDS011;41010;53.252;5.786;2022-11-23T05:33:02;42.90;;;20.55;;
55114;SDS011;41010;53.252;5.786;2022-11-23T05:35:31;42.60;;;20.17;;
55114;SDS011;41010;53.252;5.786;2022-11-23T05:37:59;46.22;;;20.75;;
55114;SDS011;41010;53.252;5.786;2022-11-23T05:40:26;44.33;;;20.83;;
55114;SDS011;41010;53.252;5.786;2022-11-23T05:42:54;44.22;;;22.92;;
55114;SDS011;41010;53.252;5.786;2022-11-23T05:45:21;45.28;;;21.55;;
55114;SDS011;41010;53.252;5.786;2022-11-23T05:47:49;45.42;;;23.52;;
55114;SDS011;41010;53.252;5.786;2022-11-23T05:50:16;48.50;;;24.40;;
55114;SDS011;41010;53.252;5.786;2022-11-23T05:52:45;50.65;;;25.05;;
55114;SDS011;41010;53.252;5.786;2022-11-23T05:55:13;48.45;;;25.15;;
55114;SDS011;41010;53.252;5.786;2022-11-23T05:57:40;50.38;;;25.25;;
55114;SDS011;41010;53.252;5.786;2022-11-23T06:00:08;51.83;;;25.35;;
55114;SDS011;41010;53.252;5.786;2022-11-23T06:02:36;48.88;;;26.45;;
55114;SDS011;41010;53.252;5.786;2022-11-23T06:05:03;57.00;;;26.85;;
55114;SDS011;41010;53.252;5.786;2022-11-23T06:07:31;54.15;;;27.48;;
55114;SDS011;41010;53.252;5.786;2022-11-23T06:10:00;50.65;;;25.90;;
55114;SDS011;41010;53.252;5.786;2022-11-23T06:12:28;53.83;;;28.27;;
55114;SDS011;41010;53.252;5.786;2022-11-23T06:14:55;55.75;;;27.73;;
55114;SDS011;41010;53.252;5.786;2022-11-23T06:17:22;55.20;;;28.90;;
55114;SDS011;41010;53.252;5.786;2022-11-23T06:19:50;56.80;;;28.25;;
55114;SDS011;41010;53.252;5.786;2022-11-23T06:22:17;58.13;;;29.90;;
55114;SDS011;41010;53.252;5.786;2022-11-23T06:24:44;56.60;;;28.60;;
55114;SDS011;41010;53.252;5.786;2022-11-23T06:27:13;60.00;;;28.25;;
55114;SDS011;41010;53.252;5.786;2022-11-23T06:29:41;58.17;;;28.73;;
55114;SDS011;41010;53.252;5.786;2022-11-23T06:32:09;55.20;;;27.25;;
55114;SDS011;41010;53.252;5.786;2022-11-23T06:34:36;49.65;;;26.63;;
55114;SDS011;41010;53.252;5.786;2022-11-23T06:37:04;57.60;;;28.75;;
55114;SDS011;41010;53.252;5.786;2022-11-23T06:39:31;60.22;;;28.10;;
55114;SDS011;41010;53.252;5.786;2022-11-23T06:41:58;54.30;;;26.35;;
55114;SDS011;41010;53.252;5.786;2022-11-23T06:44:27;53.40;;;27.63;;
55114;SDS011;41010;53.252;5.786;2022-11-23T06:46:54;47.15;;;25.30;;
55114;SDS011;41010;53.252;5.786;2022-11-23T06:49:21;48.90;;;26.77;;
55114;SDS011;41010;53.252;5.786;2022-11-23T06:51:50;45.50;;;25.02;;
55114;SDS011;41010;53.252;5.786;2022-11-23T06:54:17;43.70;;;23.83;;
55114;SDS011;41010;53.252;5.786;2022-11-23T06:56:44;47.13;;;23.65;;
55114;SDS011;41010;53.252;5.786;2022-11-23T06:59:12;43.88;;;22.55;;
55114;SDS011;41010;53.252;5.786;2022-11-23T07:01:41;39.92;;;21.40;;
55114;SDS011;41010;53.252;5.786;2022-11-23T07:04:08;38.40;;;21.73;;
55114;SDS011;41010;53.252;5.786;2022-11-23T07:06:37;40.70;;;20.98;;
55114;SDS011;41010;53.252;5.786;2022-11-23T07:09:05;40.20;;;20.77;;
55114;SDS011;41010;53.252;5.786;2022-11-23T07:11:33;37.13;;;21.10;;
55114;SDS011;41010;53.252;5.786;2022-11-23T07:14:00;40.67;;;20.75;;
55114;SDS011;41010;53.252;5.786;2022-11-23T07:16:28;33.15;;;18.45;;
55114;SDS011;41010;53.252;5.786;2022-11-23T07:18:56;35.33;;;19.20;;
55114;SDS011;41010;53.252;5.786;2022-11-23T07:21:24;30.65;;;18.05;;
55114;SDS011;41010;53.252;5.786;2022-11-23T07:23:51;32.05;;;18.33;;
55114;SDS011;41010;53.252;5.786;2022-11-23T07:26:19;29.90;;;16.98;;
55114;SDS011;41010;53.252;5.786;2022-11-23T07:28:46;30.80;;;17.48;;
55114;SDS011;41010;53.252;5.786;2022-11-23T07:31:13;34.95;;;18.25;;
55114;SDS011;41010;53.252;5.786;2022-11-23T07:33:42;33.55;;;18.13;;
55114;SDS011;41010;53.252;5.786;2022-11-23T07:36:11;30.20;;;17.30;;
55114;SDS011;41010;53.252;5.786;2022-11-23T07:38:38;25.20;;;16.25;;
55114;SDS011;41010;53.252;5.786;2022-11-23T07:41:05;31.67;;;17.00;;
55114;SDS011;41010;53.252;5.786;2022-11-23T07:43:33;30.17;;;16.20;;
55114;SDS011;41010;53.252;5.786;2022-11-23T07:46:00;28.67;;;15.90;;
55114;SDS011;41010;53.252;5.786;2022-11-23T07:48:28;27.23;;;15.30;;
55114;SDS011;41010;53.252;5.786;2022-11-23T07:50:55;27.73;;;15.77;;
55114;SDS011;41010;53.252;5.786;2022-11-23T07:53:24;27.02;;;14.68;;
55114;SDS011;41010;53.252;5.786;2022-11-23T07:55:54;33.35;;;16.35;;
55114;SDS011;41010;53.252;5.786;2022-11-23T07:58:22;23.33;;;13.93;;
55114;SDS011;41010;53.252;5.786;2022-11-23T08:00:49;26.75;;;13.75;;
55114;SDS011;41010;53.252;5.786;2022-11-23T08:03:17;25.38;;;13.88;;
55114;SDS011;41010;53.252;5.786;2022-11-23T08:05:46;24.77;;;13.70;;
55114;SDS011;41010;53.252;5.786;2022-11-23T08:08:14;26.33;;;13.63;;
55114;SDS011;41010;53.252;5.786;2022-11-23T08:10:42;23.27;;;13.00;;
55114;SDS011;41010;53.252;5.786;2022-11-23T08:13:10;23.70;;;12.27;;
55114;SDS011;41010;53.252;5.786;2022-11-23T08:15:37;26.92;;;12.80;;
55114;SDS011;41010;53.252;5.786;2022-11-23T08:18:04;23.63;;;12.20;;
55114;SDS011;41010;53.252;5.786;2022-11-23T08:20:32;25.75;;;12.43;;
55114;SDS011;41010;53.252;5.786;2022-11-23T08:22:59;21.20;;;11.07;;
55114;SDS011;41010;53.252;5.786;2022-11-23T08:25:27;22.50;;;12.20;;
55114;SDS011;41010;53.252;5.786;2022-11-23T08:27:57;22.13;;;11.70;;
55114;SDS011;41010;53.252;5.786;2022-11-23T08:30:25;23.27;;;11.90;;
55114;SDS011;41010;53.252;5.786;2022-11-23T08:32:52;22.83;;;10.90;;
55114;SDS011;41010;53.252;5.786;2022-11-23T08:35:20;30.38;;;10.88;;
55114;SDS011;41010;53.252;5.786;2022-11-23T08:37:47;20.73;;;11.02;;
55114;SDS011;41010;53.252;5.786;2022-11-23T08:40:14;21.73;;;11.38;;
55114;SDS011;41010;53.252;5.786;2022-11-23T08:42:42;25.92;;;11.43;;
55114;SDS011;41010;53.252;5.786;2022-11-23T08:45:10;22.83;;;11.30;;
55114;SDS011;41010;53.252;5.786;2022-11-23T08:47:38;21.15;;;11.00;;
55114;SDS011;41010;53.252;5.786;2022-11-23T08:50:05;20.17;;;11.20;;
55114;SDS011;41010;53.252;5.786;2022-11-23T08:52:33;23.92;;;11.13;;
55114;SDS011;41010;53.252;5.786;2022-11-23T08:55:00;25.42;;;11.85;;
55114;SDS011;41010;53.252;5.786;2022-11-23T08:57:27;22.85;;;11.15;;
55114;SDS011;41010;53.252;5.786;2022-11-23T08:59:55;21.48;;;10.90;;
55114;SDS011;41010;53.252;5.786;2022-11-23T09:02:24;32.30;;;11.45;;
55114;SDS011;41010;53.252;5.786;2022-11-23T09:04:51;22.23;;;11.15;;
55114;SDS011;41010;53.252;5.786;2022-11-23T09:07:18;20.80;;;10.65;;
55114;SDS011;41010;53.252;5.786;2022-11-23T09:09:45;24.90;;;11.07;;
55114;SDS011;41010;53.252;5.786;2022-11-23T09:12:13;26.02;;;11.85;;
55114;SDS011;41010;53.252;5.786;2022-11-23T09:14:40;25.02;;;11.18;;
55114;SDS011;41010;53.252;5.786;2022-11-23T09:17:08;23.13;;;11.35;;
55114;SDS011;41010;53.252;5.786;2022-11-23T09:19:36;18.13;;;11.95;;
55114;SDS011;41010;53.252;5.786;2022-11-23T09:22:04;24.33;;;11.93;;
55114;SDS011;41010;53.252;5.786;2022-11-23T09:24:32;21.80;;;11.70;;
55114;SDS011;41010;53.252;5.786;2022-11-23T09:26:59;25.45;;;11.68;;
55114;SDS011;41010;53.252;5.786;2022-11-23T09:29:27;28.13;;;12.60;;
55114;SDS011;41010;53.252;5.786;2022-11-23T09:31:54;23.45;;;11.68;;
55114;SDS011;41010;53.252;5.786;2022-11-23T09:34:21;23.35;;;11.35;;
55114;SDS011;41010;53.252;5.786;2022-11-23T09:36:50;25.00;;;10.25;;
55114;SDS011;41010;53.252;5.786;2022-11-23T09:39:17;27.08;;;9.63;;
55114;SDS011;41010;53.252;5.786;2022-11-23T09:41:54;29.38;;;12.80;;
55114;SDS011;41010;53.252;5.786;2022-11-23T09:44:29;18.58;;;9.20;;
55114;SDS011;41010;53.252;5.786;2022-11-23T09:47:01;26.23;;;9.05;;
55114;SDS011;41010;53.252;5.786;2022-11-23T09:49:34;15.90;;;8.40;;
55114;SDS011;41010;53.252;5.786;2022-11-23T09:52:06;21.50;;;7.90;;
55114;SDS011;41010;53.252;5.786;2022-11-23T09:54:35;17.45;;;7.68;;
55114;SDS011;41010;53.252;5.786;2022-11-23T09:57:03;20.23;;;7.85;;
55114;SDS011;41010;53.252;5.786;2022-11-23T09:59:35;19.30;;;8.20;;
55114;SDS011;41010;53.252;5.786;2022-11-23T10:02:03;20.48;;;7.97;;
55114;SDS011;41010;53.252;5.786;2022-11-23T10:04:32;19.95;;;7.30;;
55114;SDS011;41010;53.252;5.786;2022-11-23T10:07:02;19.92;;;7.55;;
55114;SDS011;41010;53.252;5.786;2022-11-23T10:09:40;17.42;;;7.60;;
55114;SDS011;41010;53.252;5.786;2022-11-23T10:12:21;23.55;;;7.75;;
55114;SDS011;41010;53.252;5.786;2022-11-23T10:14:53;16.30;;;6.85;;
55114;SDS011;41010;53.252;5.786;2022-11-23T10:17:28;26.83;;;6.33;;
55114;SDS011;41010;53.252;5.786;2022-11-23T10:20:01;20.42;;;6.88;;
55114;SDS011;41010;53.252;5.786;2022-11-23T10:22:32;18.90;;;7.43;;
55114;SDS011;41010;53.252;5.786;2022-11-23T10:25:03;22.98;;;7.50;;
55114;SDS011;41010;53.252;5.786;2022-11-23T10:27:35;18.10;;;6.47;;
55114;SDS011;41010;53.252;5.786;2022-11-23T10:30:05;19.15;;;5.78;;
55114;SDS011;41010;53.252;5.786;2022-11-23T10:32:40;17.00;;;5.70;;
55114;SDS011;41010;53.252;5.786;2022-11-23T10:35:10;21.67;;;5.70;;
55114;SDS011;41010;53.252;5.786;2022-11-23T10:37:38;16.20;;;5.32;;
55114;SDS011;41010;53.252;5.786;2022-11-23T10:40:10;16.85;;;5.03;;
55114;SDS011;41010;53.252;5.786;2022-11-23T10:42:42;26.35;;;5.25;;
55114;SDS011;41010;53.252;5.786;2022-11-23T10:45:17;15.68;;;4.28;;
55114;SDS011;41010;53.252;5.786;2022-11-23T10:47:48;11.90;;;4.30;;
55114;SDS011;41010;53.252;5.786;2022-11-23T10:50:24;18.88;;;4.20;;
55114;SDS011;41010;53.252;5.786;2022-11-23T10:52:53;21.15;;;4.38;;
55114;SDS011;41010;53.252;5.786;2022-11-23T10:55:24;16.45;;;3.90;;
55114;SDS011;41010;53.252;5.786;2022-11-23T10:57:53;24.23;;;4.80;;
55114;SDS011;41010;53.252;5.786;2022-11-23T11:00:21;19.92;;;3.75;;
55114;SDS011;41010;53.252;5.786;2022-11-23T11:02:49;24.75;;;3.70;;
55114;SDS011;41010;53.252;5.786;2022-11-23T11:05:24;12.18;;;3.58;;
55114;SDS011;41010;53.252;5.786;2022-11-23T11:07:52;23.08;;;4.32;;
55114;SDS011;41010;53.252;5.786;2022-11-23T11:13:08;13.18;;;3.10;;
55114;SDS011;41010;53.252;5.786;2022-11-23T11:15:50;19.27;;;3.10;;
55114;SDS011;41010;53.252;5.786;2022-11-23T11:18:17;15.45;;;2.75;;
55114;SDS011;41010;53.252;5.786;2022-11-23T11:20:44;18.30;;;3.22;;
55114;SDS011;41010;53.252;5.786;2022-11-23T11:23:15;15.68;;;2.45;;
55114;SDS011;41010;53.252;5.786;2022-11-23T11:25:42;19.23;;;3.40;;
55114;SDS011;41010;53.252;5.786;2022-11-23T11:28:19;16.00;;;3.08;;
55114;SDS011;41010;53.252;5.786;2022-11-23T11:30:50;16.92;;;3.08;;
55114;SDS011;41010;53.252;5.786;2022-11-23T11:33:20;15.63;;;2.70;;
55114;SDS011;41010;53.252;5.786;2022-11-23T11:35:50;15.90;;;3.03;;
55114;SDS011;41010;53.252;5.786;2022-11-23T11:38:18;18.05;;;2.67;;
55114;SDS011;41010;53.252;5.786;2022-11-23T11:40:47;17.13;;;2.33;;
55114;SDS011;41010;53.252;5.786;2022-11-23T11:43:16;20.65;;;3.08;;
55114;SDS011;41010;53.252;5.786;2022-11-23T11:45:47;10.85;;;2.60;;
55114;SDS011;41010;53.252;5.786;2022-11-23T11:48:14;21.13;;;3.00;;
55114;SDS011;41010;53.252;5.786;2022-11-23T11:50:46;15.30;;;3.10;;
55114;SDS011;41010;53.252;5.786;2022-11-23T11:53:15;11.25;;;2.38;;
55114;SDS011;41010;53.252;5.786;2022-11-23T11:55:45;14.18;;;2.40;;
55114;SDS011;41010;53.252;5.786;2022-11-23T11:58:15;16.25;;;2.92;;
55114;SDS011;41010;53.252;5.786;2022-11-23T12:00:42;14.77;;;2.63;;
55114;SDS011;41010;53.252;5.786;2022-11-23T12:03:17;20.52;;;3.30;;
55114;SDS011;41010;53.252;5.786;2022-11-23T12:05:46;23.02;;;2.78;;
55114;SDS011;41010;53.252;5.786;2022-11-23T12:08:15;23.10;;;3.17;;
55114;SDS011;41010;53.252;5.786;2022-11-23T12:10:45;14.07;;;2.45;;
55114;SDS011;41010;53.252;5.786;2022-11-23T12:13:14;19.40;;;2.97;;
55114;SDS011;41010;53.252;5.786;2022-11-23T12:15:42;14.93;;;2.60;;
55114;SDS011;41010;53.252;5.786;2022-11-23T12:20:59;20.55;;;3.03;;
55114;SDS011;41010;53.252;5.786;2022-11-23T12:23:31;14.88;;;2.78;;
55114;SDS011;41010;53.252;5.786;2022-11-23T12:26:07;18.67;;;3.05;;
55114;SDS011;41010;53.252;5.786;2022-11-23T12:28:41;14.18;;;2.33;;
55114;SDS011;41010;53.252;5.786;2022-11-23T12:33:42;15.73;;;2.78;;
55114;SDS011;41010;53.252;5.786;2022-11-23T12:36:20;24.35;;;3.25;;
55114;SDS011;41010;53.252;5.786;2022-11-23T12:38:53;18.05;;;3.17;;
55114;SDS011;41010;53.252;5.786;2022-11-23T12:41:21;15.23;;;2.88;;
55114;SDS011;41010;53.252;5.786;2022-11-23T12:43:57;15.63;;;2.13;;
55114;SDS011;41010;53.252;5.786;2022-11-23T12:46:28;16.88;;;2.40;;
55114;SDS011;41010;53.252;5.786;2022-11-23T12:49:02;18.33;;;3.97;;
55114;SDS011;41010;53.252;5.786;2022-11-23T12:51:35;14.43;;;2.55;;
55114;SDS011;41010;53.252;5.786;2022-11-23T12:54:08;15.40;;;2.30;;
55114;SDS011;41010;53.252;5.786;2022-11-23T12:56:45;13.30;;;2.50;;
55114;SDS011;41010;53.252;5.786;2022-11-23T12:59:15;13.25;;;2.55;;
55114;SDS011;41010;53.252;5.786;2022-11-23T13:01:45;16.63;;;2.42;;
55114;SDS011;41010;53.252;5.786;2022-11-23T13:07:19;14.43;;;2.45;;
55114;SDS011;41010;53.252;5.786;2022-11-23T13:10:01;18.42;;;3.03;;
55114;SDS011;41010;53.252;5.786;2022-11-23T13:12:34;16.30;;;2.53;;
55114;SDS011;41010;53.252;5.786;2022-11-23T13:15:14;15.02;;;2.80;;
55114;SDS011;41010;53.252;5.786;2022-11-23T13:17:46;12.80;;;2.25;;
55114;SDS011;41010;53.252;5.786;2022-11-23T13:23:02;15.70;;;2.42;;
55114;SDS011;41010;53.252;5.786;2022-11-23T13:25:31;15.20;;;2.58;;
55114;SDS011;41010;53.252;5.786;2022-11-23T13:27:59;17.20;;;2.13;;
55114;SDS011;41010;53.252;5.786;2022-11-23T13:30:28;12.70;;;2.40;;
55114;SDS011;41010;53.252;5.786;2022-11-23T13:32:56;15.23;;;2.08;;
55114;SDS011;41010;53.252;5.786;2022-11-23T13:40:53;9.80;;;1.92;;
55114;SDS011;41010;53.252;5.786;2022-11-23T13:43:22;13.93;;;2.30;;
55114;SDS011;41010;53.252;5.786;2022-11-23T13:46:08;15.35;;;2.45;;
55114;SDS011;41010;53.252;5.786;2022-11-23T13:48:40;15.18;;;2.40;;
55114;SDS011;41010;53.252;5.786;2022-11-23T13:51:08;16.58;;;2.83;;
55114;SDS011;41010;53.252;5.786;2022-11-23T13:53:36;13.95;;;2.30;;
55114;SDS011;41010;53.252;5.786;2022-11-23T14:04:24;16.00;;;2.05;;
55114;SDS011;41010;53.252;5.786;2022-11-23T14:06:53;10.90;;;2.10;;
55114;SDS011;41010;53.252;5.786;2022-11-23T14:09:23;15.50;;;3.25;;
55114;SDS011;41010;53.252;5.786;2022-11-23T14:11:54;12.05;;;1.98;;
55114;SDS011;41010;53.252;5.786;2022-11-23T14:14:25;13.23;;;1.98;;
55114;SDS011;41010;53.252;5.786;2022-11-23T14:17:02;15.82;;;1.98;;
55114;SDS011;41010;53.252;5.786;2022-11-23T14:19:33;12.10;;;1.90;;
55114;SDS011;41010;53.252;5.786;2022-11-23T14:22:05;9.68;;;2.33;;
55114;SDS011;41010;53.252;5.786;2022-11-23T14:24:43;14.52;;;2.28;;
55114;SDS011;41010;53.252;5.786;2022-11-23T14:27:23;11.00;;;1.90;;
55114;SDS011;41010;53.252;5.786;2022-11-23T14:30:03;12.52;;;2.20;;
55114;SDS011;41010;53.252;5.786;2022-11-23T14:32:35;14.10;;;2.10;;
55114;SDS011;41010;53.252;5.786;2022-11-23T14:37:38;10.50;;;2.10;;
55114;SDS011;41010;53.252;5.786;2022-11-23T14:40:13;11.77;;;3.08;;
55114;SDS011;41010;53.252;5.786;2022-11-23T14:42:44;11.75;;;2.30;;
55114;SDS011;41010;53.252;5.786;2022-11-23T14:45:16;12.77;;;2.08;;
55114;SDS011;41010;53.252;5.786;2022-11-23T14:47:45;16.23;;;2.20;;
55114;SDS011;41010;53.252;5.786;2022-11-23T14:50:19;17.27;;;1.90;;
55114;SDS011;41010;53.252;5.786;2022-11-23T14:52:48;11.10;;;1.70;;
55114;SDS011;41010;53.252;5.786;2022-11-23T14:55:18;9.68;;;1.80;;
55114;SDS011;41010;53.252;5.786;2022-11-23T14:57:46;14.13;;;1.90;;
55114;SDS011;41010;53.252;5.786;2022-11-23T15:00:28;8.20;;;2.05;;
55114;SDS011;41010;53.252;5.786;2022-11-23T15:02:56;10.40;;;1.50;;
55114;SDS011;41010;53.252;5.786;2022-11-23T15:05:25;8.10;;;2.03;;